sensor_id;sensor_type;location;lat;lon;timestamp;temperature;humidity
13320;DHT22;59599;47.608;12.190;2022-09-09T04:02:38;15.60;99.90
13320;DHT22;59599;47.608;12.190;2022-09-09T04:05:04;15.60;99.90
13320;DHT22;59599;47.608;12.190;2022-09-09T04:07:32;15.70;99.90
13320;DHT22;59599;47.608;12.190;2022-09-09T04:19:42;15.80;99.90
13320;DHT22;59599;47.608;12.190;2022-09-09T04:24:34;15.90;99.90
13320;DHT22;59599;47.608;12.190;2022-09-09T04:56:15;15.60;99.90
13320;DHT22;59599;47.608;12.190;2022-09-09T04:58:42;15.60;99.90
13320;DHT22;59599;47.608;12.190;2022-09-09T05:06:16;15.50;99.90
13320;DHT22;59599;47.608;12.190;2022-09-09T05:08:42;15.30;99.90
13320;DHT22;59599;47.608;12.190;2022-09-09T05:11:26;15.20;99.90
13320;DHT22;59599;47.608;12.190;2022-09-09T05:13:52;15.20;99.90
13320;DHT22;59599;47.608;12.190;2022-09-09T05:16:19;15.20;99.90
13320;DHT22;59599;47.608;12.190;2022-09-09T05:26:06;15.20;99.90
13320;DHT22;59599;47.608;12.190;2022-09-09T05:28:34;15.10;99.90
13320;DHT22;59599;47.608;12.190;2022-09-09T05:31:06;15.20;99.90
13320;DHT22;59599;47.608;12.190;2022-09-09T05:33:34;15.20;99.90
13320;DHT22;59599;47.608;12.190;2022-09-09T05:36:05;15.20;99.90
13320;DHT22;59599;47.608;12.190;2022-09-09T05:38:32;15.30;99.90
13320;DHT22;59599;47.608;12.190;2022-09-09T05:46:06;15.10;99.90
13320;DHT22;59599;47.608;12.190;2022-09-09T05:53:34;15.00;99.90
13320;DHT22;59599;47.608;12.190;2022-09-09T05:58:33;15.20;99.90
13320;DHT22;59599;47.608;12.190;2022-09-09T06:01:12;15.10;99.90
13320;DHT22;59599;47.608;12.190;2022-09-09T06:03:40;15.20;99.90
13320;DHT22;59599;47.608;12.190;2022-09-09T06:06:08;15.20;99.90
13320;DHT22;59599;47.608;12.190;2022-09-09T06:08:36;15.30;99.90
13320;DHT22;59599;47.608;12.190;2022-09-09T06:13:31;15.30;99.90
13320;DHT22;59599;47.608;12.190;2022-09-09T06:15:57;15.30;99.90
13320;DHT22;59599;47.608;12.190;2022-09-09T06:21:16;15.30;99.90
13320;DHT22;59599;47.608;12.190;2022-09-09T06:23:42;15.30;99.90
13320;DHT22;59599;47.608;12.190;2022-09-09T06:26:11;15.30;99.90
13320;DHT22;59599;47.608;12.190;2022-09-09T06:31:06;15.20;99.90
13320;DHT22;59599;47.608;12.190;2022-09-09T06:33:37;15.10;99.90
13320;DHT22;59599;47.608;12.190;2022-09-09T06:36:07;15.00;99.90
13320;DHT22;59599;47.608;12.190;2022-09-09T06:38:35;14.90;99.90
13320;DHT22;59599;47.608;12.190;2022-09-09T06:46:05;14.70;99.90
13320;DHT22;59599;47.608;12.190;2022-09-09T06:53:35;14.70;99.90
13320;DHT22;59599;47.608;12.190;2022-09-09T06:56:02;14.70;99.90
13320;DHT22;59599;47.608;12.190;2022-09-09T07:01:04;14.70;99.90
13320;DHT22;59599;47.608;12.190;2022-09-09T07:08:23;14.60;99.90
13320;DHT22;59599;47.608;12.190;2022-09-09T07:10:50;14.70;99.90
13320;DHT22;59599;47.608;12.190;2022-09-09T07:27:56;14.90;99.90
13320;DHT22;59599;47.608;12.190;2022-09-09T07:35:14;15.00;99.90
13320;DHT22;59599;47.608;12.190;2022-09-09T07:40:06;15.00;99.90
13320;DHT22;59599;47.608;12.190;2022-09-09T07:42:32;15.10;99.90
13320;DHT22;59599;47.608;12.190;2022-09-09T07:47:24;15.10;99.90
13320;DHT22;59599;47.608;12.190;2022-09-09T07:57:08;15.20;99.90
13320;DHT22;59599;47.608;12.190;2022-09-09T07:59:33;15.20;99.90
13320;DHT22;59599;47.608;12.190;2022-09-09T08:04:26;15.30;99.90
13320;DHT22;59599;47.608;12.190;2022-09-09T08:06:56;15.30;99.90
13320;DHT22;59599;47.608;12.190;2022-09-09T08:09:22;15.30;99.90
13320;DHT22;59599;47.608;12.190;2022-09-09T08:16:45;15.40;99.90
13320;DHT22;59599;47.608;12.190;2022-09-09T08:19:12;15.40;99.90
13320;DHT22;59599;47.608;12.190;2022-09-09T08:21:39;15.40;99.90
13320;DHT22;59599;47.608;12.190;2022-09-09T08:26:34;15.50;99.90
13320;DHT22;59599;47.608;12.190;2022-09-09T08:29:00;15.60;99.90
13320;DHT22;59599;47.608;12.190;2022-09-09T08:31:37;15.60;99.90
13320;DHT22;59599;47.608;12.190;2022-09-09T08:34:03;15.60;99.90
13320;DHT22;59599;47.608;12.190;2022-09-09T08:36:32;15.60;99.90
13320;DHT22;59599;47.608;12.190;2022-09-09T08:55:39;16.10;99.90
13320;DHT22;59599;47.608;12.190;2022-09-09T09:11:27;16.40;99.90
13320;DHT22;59599;47.608;12.190;2022-09-09T09:14:03;16.40;99.90
13320;DHT22;59599;47.608;12.190;2022-09-09T09:19:13;16.60;99.90
13320;DHT22;59599;47.608;12.190;2022-09-09T09:21:50;16.60;99.90
13320;DHT22;59599;47.608;12.190;2022-09-09T09:24:20;16.70;99.90
13320;DHT22;59599;47.608;12.190;2022-09-09T09:26:47;16.70;99.90
13320;DHT22;59599;47.608;12.190;2022-09-09T09:29:16;16.70;99.90
13320;DHT22;59599;47.608;12.190;2022-09-09T09:31:48;16.80;99.90
13320;DHT22;59599;47.608;12.190;2022-09-09T09:34:16;16.80;99.90
13320;DHT22;59599;47.608;12.190;2022-09-09T09:36:56;16.80;99.90
13320;DHT22;59599;47.608;12.190;2022-09-09T09:39:33;16.80;99.90
13320;DHT22;59599;47.608;12.190;2022-09-09T09:42:14;16.80;99.90
13320;DHT22;59599;47.608;12.190;2022-09-09T09:44:41;16.80;99.90
13320;DHT22;59599;47.608;12.190;2022-09-09T09:47:14;16.80;99.90
13320;DHT22;59599;47.608;12.190;2022-09-09T09:50:00;16.70;99.90
13320;DHT22;59599;47.608;12.190;2022-09-09T09:52:29;16.60;99.90
13320;DHT22;59599;47.608;12.190;2022-09-09T09:54:57;16.60;99.90
13320;DHT22;59599;47.608;12.190;2022-09-09T09:57:26;16.60;99.90
13320;DHT22;59599;47.608;12.190;2022-09-09T10:00:15;16.50;99.90
13320;DHT22;59599;47.608;12.190;2022-09-09T10:02:43;16.30;99.90
13320;DHT22;59599;47.608;12.190;2022-09-09T10:05:24;16.40;99.90
13320;DHT22;59599;47.608;12.190;2022-09-09T10:08:10;16.30;99.90
13320;DHT22;59599;47.608;12.190;2022-09-09T10:11:00;16.30;99.90
13320;DHT22;59599;47.608;12.190;2022-09-09T10:19:32;16.60;99.90
13320;DHT22;59599;47.608;12.190;2022-09-09T10:22:27;16.60;99.90
13320;DHT22;59599;47.608;12.190;2022-09-09T10:33:10;16.60;99.90
13320;DHT22;59599;47.608;12.190;2022-09-09T10:35:51;16.70;99.90
13320;DHT22;59599;47.608;12.190;2022-09-09T10:38:30;16.70;99.90
13320;DHT22;59599;47.608;12.190;2022-09-09T10:41:07;16.50;99.90
13320;DHT22;59599;47.608;12.190;2022-09-09T10:46:40;16.50;99.90
13320;DHT22;59599;47.608;12.190;2022-09-09T10:51:54;16.40;99.90
13320;DHT22;59599;47.608;12.190;2022-09-09T10:59:50;16.20;99.90
13320;DHT22;59599;47.608;12.190;2022-09-09T11:02:28;16.10;99.90
13320;DHT22;59599;47.608;12.190;2022-09-09T11:05:21;16.10;99.90
13320;DHT22;59599;47.608;12.190;2022-09-09T11:07:57;16.10;99.90
13320;DHT22;59599;47.608;12.190;2022-09-09T11:10:39;16.20;99.90
13320;DHT22;59599;47.608;12.190;2022-09-09T11:13:17;16.10;99.90
13320;DHT22;59599;47.608;12.190;2022-09-09T11:15:50;16.20;99.90
13320;DHT22;59599;47.608;12.190;2022-09-09T11:18:21;16.20;99.90
13320;DHT22;59599;47.608;12.190;2022-09-09T11:20:51;16.10;99.90
13320;DHT22;59599;47.608;12.190;2022-09-09T11:23:34;16.10;99.90
13320;DHT22;59599;47.608;12.190;2022-09-09T11:26:04;16.10;99.90
13320;DHT22;59599;47.608;12.190;2022-09-09T11:29:06;16.20;99.90
13320;DHT22;59599;47.608;12.190;2022-09-09T11:31:44;16.20;99.90
13320;DHT22;59599;47.608;12.190;2022-09-09T11:42:33;16.10;99.90
13320;DHT22;59599;47.608;12.190;2022-09-09T11:45:09;16.00;99.90
13320;DHT22;59599;47.608;12.190;2022-09-09T11:50:30;16.20;99.90
13320;DHT22;59599;47.608;12.190;2022-09-09T11:53:19;16.30;99.90
13320;DHT22;59599;47.608;12.190;2022-09-09T11:55:59;16.30;99.90
13320;DHT22;59599;47.608;12.190;2022-09-09T11:58:27;16.30;99.90
13320;DHT22;59599;47.608;12.190;2022-09-09T12:00:58;16.30;99.90
13320;DHT22;59599;47.608;12.190;2022-09-09T12:03:46;16.40;99.90
13320;DHT22;59599;47.608;12.190;2022-09-09T12:06:25;16.30;99.90
13320;DHT22;59599;47.608;12.190;2022-09-09T12:08:57;16.30;99.90
13320;DHT22;59599;47.608;12.190;2022-09-09T12:11:28;16.30;99.90
13320;DHT22;59599;47.608;12.190;2022-09-09T12:13:55;16.40;99.90
13320;DHT22;59599;47.608;12.190;2022-09-09T12:22:07;16.50;99.90
13320;DHT22;59599;47.608;12.190;2022-09-09T12:29:58;16.50;99.90
13320;DHT22;59599;47.608;12.190;2022-09-09T12:32:27;16.50;99.90
13320;DHT22;59599;47.608;12.190;2022-09-09T12:35:00;16.50;99.90
13320;DHT22;59599;47.608;12.190;2022-09-09T12:37:40;16.50;99.90
13320;DHT22;59599;47.608;12.190;2022-09-09T12:42:32;16.60;99.90
13320;DHT22;59599;47.608;12.190;2022-09-09T12:45:00;16.60;99.90
13320;DHT22;59599;47.608;12.190;2022-09-09T12:49:55;16.70;99.90
13320;DHT22;59599;47.608;12.190;2022-09-09T12:52:31;16.50;99.90
13320;DHT22;59599;47.608;12.190;2022-09-09T12:55:00;16.40;99.90
13320;DHT22;59599;47.608;12.190;2022-09-09T12:57:33;16.40;99.90
13320;DHT22;59599;47.608;12.190;2022-09-09T13:00:18;16.50;99.90
13320;DHT22;59599;47.608;12.190;2022-09-09T13:02:55;16.30;99.90
13320;DHT22;59599;47.608;12.190;2022-09-09T13:05:36;16.40;99.90
13320;DHT22;59599;47.608;12.190;2022-09-09T13:08:07;16.40;99.90
13320;DHT22;59599;47.608;12.190;2022-09-09T13:10:53;16.40;99.90
13320;DHT22;59599;47.608;12.190;2022-09-09T13:13:27;16.40;99.90
13320;DHT22;59599;47.608;12.190;2022-09-09T13:15:57;16.50;99.90
13320;DHT22;59599;47.608;12.190;2022-09-09T13:18:29;16.60;99.90
13320;DHT22;59599;47.608;12.190;2022-09-09T13:20:56;16.40;99.90
13320;DHT22;59599;47.608;12.190;2022-09-09T13:23:33;16.50;99.90
13320;DHT22;59599;47.608;12.190;2022-09-09T13:26:05;16.70;99.90
13320;DHT22;59599;47.608;12.190;2022-09-09T13:28:32;16.70;99.90
13320;DHT22;59599;47.608;12.190;2022-09-09T13:31:05;16.60;99.90
13320;DHT22;59599;47.608;12.190;2022-09-09T13:36:11;16.40;99.90
13320;DHT22;59599;47.608;12.190;2022-09-09T13:38:56;16.30;99.90
13320;DHT22;59599;47.608;12.190;2022-09-09T13:41:24;16.30;99.90
13320;DHT22;59599;47.608;12.190;2022-09-09T13:43:51;16.40;99.90
13320;DHT22;59599;47.608;12.190;2022-09-09T13:46:36;16.50;99.90
13320;DHT22;59599;47.608;12.190;2022-09-09T13:49:20;16.50;99.90
13320;DHT22;59599;47.608;12.190;2022-09-09T13:51:49;16.70;99.90
13320;DHT22;59599;47.608;12.190;2022-09-09T13:54:18;16.60;99.90
13320;DHT22;59599;47.608;12.190;2022-09-09T13:56:44;16.50;99.90
13320;DHT22;59599;47.608;12.190;2022-09-09T13:59:18;16.50;99.90
13320;DHT22;59599;47.608;12.190;2022-09-09T14:01:47;16.60;99.90
13320;DHT22;59599;47.608;12.190;2022-09-09T14:04:14;16.70;99.90
13320;DHT22;59599;47.608;12.190;2022-09-09T14:09:10;16.80;99.90
13320;DHT22;59599;47.608;12.190;2022-09-09T14:11:35;16.70;99.90
13320;DHT22;59599;47.608;12.190;2022-09-09T14:26:14;17.30;99.90
13320;DHT22;59599;47.608;12.190;2022-09-09T14:31:06;17.50;99.90
13320;DHT22;59599;47.608;12.190;2022-09-09T14:35:59;17.60;99.90
13320;DHT22;59599;47.608;12.190;2022-09-09T14:38:29;17.60;99.90
13320;DHT22;59599;47.608;12.190;2022-09-09T14:43:21;17.60;99.90
13320;DHT22;59599;47.608;12.190;2022-09-09T14:48:17;17.80;99.90
13320;DHT22;59599;47.608;12.190;2022-09-09T14:50:42;17.60;99.90
13320;DHT22;59599;47.608;12.190;2022-09-09T14:53:09;17.60;99.90
13320;DHT22;59599;47.608;12.190;2022-09-09T14:58:01;17.50;99.90
13320;DHT22;59599;47.608;12.190;2022-09-09T15:00:27;17.30;99.90
13320;DHT22;59599;47.608;12.190;2022-09-09T15:02:55;17.30;99.90
13320;DHT22;59599;47.608;12.190;2022-09-09T15:05:21;17.30;99.90
13320;DHT22;59599;47.608;12.190;2022-09-09T15:07:47;17.20;99.90
13320;DHT22;59599;47.608;12.190;2022-09-09T15:10:16;17.20;99.90
13320;DHT22;59599;47.608;12.190;2022-09-09T15:12:43;17.20;99.90
13320;DHT22;59599;47.608;12.190;2022-09-09T15:15:09;17.10;99.90
13320;DHT22;59599;47.608;12.190;2022-09-09T15:17:35;17.00;99.90
13320;DHT22;59599;47.608;12.190;2022-09-09T15:20:03;17.10;99.90
13320;DHT22;59599;47.608;12.190;2022-09-09T15:22:31;17.20;99.90
13320;DHT22;59599;47.608;12.190;2022-09-09T15:24:57;17.40;99.90
13320;DHT22;59599;47.608;12.190;2022-09-09T15:27:22;17.50;99.90
13320;DHT22;59599;47.608;12.190;2022-09-09T15:29:49;17.50;99.90
13320;DHT22;59599;47.608;12.190;2022-09-09T15:34:41;17.70;99.90
13320;DHT22;59599;47.608;12.190;2022-09-09T15:37:10;17.80;99.90
13320;DHT22;59599;47.608;12.190;2022-09-09T15:49:22;17.40;99.90
13320;DHT22;59599;47.608;12.190;2022-09-09T15:51:53;17.30;99.90
13320;DHT22;59599;47.608;12.190;2022-09-09T15:54:21;17.10;99.90
13320;DHT22;59599;47.608;12.190;2022-09-09T15:56:57;16.90;99.90
13320;DHT22;59599;47.608;12.190;2022-09-09T15:59:24;16.80;99.90
13320;DHT22;59599;47.608;12.190;2022-09-09T16:04:17;16.80;99.90
13320;DHT22;59599;47.608;12.190;2022-09-09T16:06:51;16.90;99.90
13320;DHT22;59599;47.608;12.190;2022-09-09T16:09:17;16.80;99.90
13320;DHT22;59599;47.608;12.190;2022-09-09T16:19:09;16.90;99.90
13320;DHT22;59599;47.608;12.190;2022-09-09T16:21:45;16.80;99.90
13320;DHT22;59599;47.608;12.190;2022-09-09T16:24:13;16.70;99.90
13320;DHT22;59599;47.608;12.190;2022-09-09T16:26:42;16.70;99.90
13320;DHT22;59599;47.608;12.190;2022-09-09T16:29:11;16.60;99.90
13320;DHT22;59599;47.608;12.190;2022-09-09T16:31:37;16.60;99.90
13320;DHT22;59599;47.608;12.190;2022-09-09T16:34:03;16.60;99.90
13320;DHT22;59599;47.608;12.190;2022-09-09T16:36:30;16.60;99.90
13320;DHT22;59599;47.608;12.190;2022-09-09T16:38:58;16.70;99.90
13320;DHT22;59599;47.608;12.190;2022-09-09T16:41:26;16.70;99.90
13320;DHT22;59599;47.608;12.190;2022-09-09T16:43:58;16.60;99.90
13320;DHT22;59599;47.608;12.190;2022-09-09T16:46:25;16.50;99.90
13320;DHT22;59599;47.608;12.190;2022-09-09T16:48:51;16.60;99.90
13320;DHT22;59599;47.608;12.190;2022-09-09T16:51:23;16.60;99.90
13320;DHT22;59599;47.608;12.190;2022-09-09T16:53:50;16.50;99.90
13320;DHT22;59599;47.608;12.190;2022-09-09T16:56:19;16.50;99.90
13320;DHT22;59599;47.608;12.190;2022-09-09T16:58:50;16.40;99.90
13320;DHT22;59599;47.608;12.190;2022-09-09T17:03:42;16.40;99.90
13320;DHT22;59599;47.608;12.190;2022-09-09T17:06:11;16.50;99.90
13320;DHT22;59599;47.608;12.190;2022-09-09T17:08:41;16.50;99.90
13320;DHT22;59599;47.608;12.190;2022-09-09T17:11:14;16.40;99.90
13320;DHT22;59599;47.608;12.190;2022-09-09T17:13:41;16.30;99.90
13320;DHT22;59599;47.608;12.190;2022-09-09T17:16:07;16.30;99.90
13320;DHT22;59599;47.608;12.190;2022-09-09T17:18:34;16.20;99.90
13320;DHT22;59599;47.608;12.190;2022-09-09T17:21:07;16.20;99.90
13320;DHT22;59599;47.608;12.190;2022-09-09T17:23:36;16.20;99.90
13320;DHT22;59599;47.608;12.190;2022-09-09T17:26:07;16.20;99.90
13320;DHT22;59599;47.608;12.190;2022-09-09T17:28:34;16.10;99.90
13320;DHT22;59599;47.608;12.190;2022-09-09T17:31:00;16.10;99.90
13320;DHT22;59599;47.608;12.190;2022-09-09T17:33:28;16.10;99.90
13320;DHT22;59599;47.608;12.190;2022-09-09T17:36:00;16.10;99.90
13320;DHT22;59599;47.608;12.190;2022-09-09T17:38:27;16.10;99.90
13320;DHT22;59599;47.608;12.190;2022-09-09T17:41:20;16.00;99.90
13320;DHT22;59599;47.608;12.190;2022-09-09T17:43:46;15.90;99.90
13320;DHT22;59599;47.608;12.190;2022-09-09T17:46:21;15.90;99.90
13320;DHT22;59599;47.608;12.190;2022-09-09T17:48:52;15.80;99.90
13320;DHT22;59599;47.608;12.190;2022-09-09T17:51:21;15.90;99.90
13320;DHT22;59599;47.608;12.190;2022-09-09T17:53:54;15.70;99.90
13320;DHT22;59599;47.608;12.190;2022-09-09T17:56:21;15.80;99.90
13320;DHT22;59599;47.608;12.190;2022-09-09T17:58:48;15.70;99.90
13320;DHT22;59599;47.608;12.190;2022-09-09T18:01:17;15.70;99.90
13320;DHT22;59599;47.608;12.190;2022-09-09T18:03:44;15.70;99.90
13320;DHT22;59599;47.608;12.190;2022-09-09T18:06:12;15.80;99.90
13320;DHT22;59599;47.608;12.190;2022-09-09T18:08:39;15.70;99.90
13320;DHT22;59599;47.608;12.190;2022-09-09T18:11:06;15.70;99.90
13320;DHT22;59599;47.608;12.190;2022-09-09T18:13:32;15.70;99.90
13320;DHT22;59599;47.608;12.190;2022-09-09T18:15:57;15.70;99.90
13320;DHT22;59599;47.608;12.190;2022-09-09T18:18:23;15.70;99.90
13320;DHT22;59599;47.608;12.190;2022-09-09T18:21:04;15.70;99.90
13320;DHT22;59599;47.608;12.190;2022-09-09T18:23:36;15.70;99.90
13320;DHT22;59599;47.608;12.190;2022-09-09T18:26:10;15.70;99.90
13320;DHT22;59599;47.608;12.190;2022-09-09T18:28:37;15.70;99.90
13320;DHT22;59599;47.608;12.190;2022-09-09T18:31:09;15.70;99.90
13320;DHT22;59599;47.608;12.190;2022-09-09T18:33:36;15.80;99.90
13320;DHT22;59599;47.608;12.190;2022-09-09T18:36:06;15.80;99.90
13320;DHT22;59599;47.608;12.190;2022-09-09T18:41:01;15.70;99.90
13320;DHT22;59599;47.608;12.190;2022-09-09T18:43:36;15.70;99.90
13320;DHT22;59599;47.608;12.190;2022-09-09T18:46:05;15.60;99.90
13320;DHT22;59599;47.608;12.190;2022-09-09T18:48:34;15.60;99.90
13320;DHT22;59599;47.608;12.190;2022-09-09T18:51:07;15.50;99.90
13320;DHT22;59599;47.608;12.190;2022-09-09T18:53:34;15.50;99.90
13320;DHT22;59599;47.608;12.190;2022-09-09T18:56:05;15.40;99.90
13320;DHT22;59599;47.608;12.190;2022-09-09T18:58:32;15.40;99.90
13320;DHT22;59599;47.608;12.190;2022-09-09T19:00:59;15.40;99.90
13320;DHT22;59599;47.608;12.190;2022-09-09T19:03:26;15.40;99.90
13320;DHT22;59599;47.608;12.190;2022-09-09T19:08:18;15.30;99.90
13320;DHT22;59599;47.608;12.190;2022-09-09T19:10:48;15.30;99.90
13320;DHT22;59599;47.608;12.190;2022-09-09T19:13:13;15.50;99.90
13320;DHT22;59599;47.608;12.190;2022-09-09T19:15:40;15.50;99.90
13320;DHT22;59599;47.608;12.190;2022-09-09T19:18:05;15.60;99.90
13320;DHT22;59599;47.608;12.190;2022-09-09T19:20:31;15.60;99.90
13320;DHT22;59599;47.608;12.190;2022-09-09T19:22:57;15.50;99.90
13320;DHT22;59599;47.608;12.190;2022-09-09T19:25:22;15.50;99.90
13320;DHT22;59599;47.608;12.190;2022-09-09T19:27:49;15.50;99.90
13320;DHT22;59599;47.608;12.190;2022-09-09T19:35:08;15.20;99.90
13320;DHT22;59599;47.608;12.190;2022-09-09T19:37:34;15.20;99.90
13320;DHT22;59599;47.608;12.190;2022-09-09T19:40:00;15.30;99.90
13320;DHT22;59599;47.608;12.190;2022-09-09T19:42:26;15.30;99.90
13320;DHT22;59599;47.608;12.190;2022-09-09T19:44:51;15.30;99.90
13320;DHT22;59599;47.608;12.190;2022-09-09T19:47:18;15.30;99.90
13320;DHT22;59599;47.608;12.190;2022-09-09T19:52:11;15.40;99.90
13320;DHT22;59599;47.608;12.190;2022-09-09T20:04:22;15.30;99.90
13320;DHT22;59599;47.608;12.190;2022-09-09T20:06:48;15.40;99.90
13320;DHT22;59599;47.608;12.190;2022-09-09T20:09:15;15.40;99.90
13320;DHT22;59599;47.608;12.190;2022-09-09T20:14:08;15.50;99.90
13320;DHT22;59599;47.608;12.190;2022-09-09T20:19:03;15.50;99.90
13320;DHT22;59599;47.608;12.190;2022-09-09T20:21:32;15.20;99.90
13320;DHT22;59599;47.608;12.190;2022-09-09T20:24:06;15.30;99.90
13320;DHT22;59599;47.608;12.190;2022-09-09T20:26:32;15.30;99.90
13320;DHT22;59599;47.608;12.190;2022-09-09T20:29:00;15.20;99.90
13320;DHT22;59599;47.608;12.190;2022-09-09T20:31:28;15.20;99.90
13320;DHT22;59599;47.608;12.190;2022-09-09T20:33:55;15.20;99.90
13320;DHT22;59599;47.608;12.190;2022-09-09T20:36:26;15.20;99.90
13320;DHT22;59599;47.608;12.190;2022-09-09T20:38:55;15.20;99.90
13320;DHT22;59599;47.608;12.190;2022-09-09T20:41:23;15.00;99.90
13320;DHT22;59599;47.608;12.190;2022-09-09T20:43:50;15.00;99.90
13320;DHT22;59599;47.608;12.190;2022-09-09T20:46:22;15.00;99.90
13320;DHT22;59599;47.608;12.190;2022-09-09T20:48:49;14.80;99.90
13320;DHT22;59599;47.608;12.190;2022-09-09T20:51:21;14.90;99.90
13320;DHT22;59599;47.608;12.190;2022-09-09T20:53:55;14.90;99.90
13320;DHT22;59599;47.608;12.190;2022-09-09T20:56:26;14.90;99.90
13320;DHT22;59599;47.608;12.190;2022-09-09T20:58:52;14.90;99.90
13320;DHT22;59599;47.608;12.190;2022-09-09T21:01:19;14.90;99.90
13320;DHT22;59599;47.608;12.190;2022-09-09T21:03:45;15.00;99.90
13320;DHT22;59599;47.608;12.190;2022-09-09T21:06:11;15.10;99.90
13320;DHT22;59599;47.608;12.190;2022-09-09T21:08:37;15.10;99.90
13320;DHT22;59599;47.608;12.190;2022-09-09T21:11:04;15.10;99.90
13320;DHT22;59599;47.608;12.190;2022-09-09T21:13:32;15.00;99.90
13320;DHT22;59599;47.608;12.190;2022-09-09T21:18:24;15.10;99.90
13320;DHT22;59599;47.608;12.190;2022-09-09T21:20:54;15.10;99.90
13320;DHT22;59599;47.608;12.190;2022-09-09T21:23:20;15.10;99.90
13320;DHT22;59599;47.608;12.190;2022-09-09T21:25:46;15.20;99.90
13320;DHT22;59599;47.608;12.190;2022-09-09T21:28:12;15.20;99.90
13320;DHT22;59599;47.608;12.190;2022-09-09T21:30:38;15.10;99.90
13320;DHT22;59599;47.608;12.190;2022-09-09T21:33:10;15.10;99.90
13320;DHT22;59599;47.608;12.190;2022-09-09T21:35:39;15.00;99.90
13320;DHT22;59599;47.608;12.190;2022-09-09T21:38:07;15.00;99.90
13320;DHT22;59599;47.608;12.190;2022-09-09T21:40:37;14.90;99.90
13320;DHT22;59599;47.608;12.190;2022-09-09T21:43:04;14.90;99.90
13320;DHT22;59599;47.608;12.190;2022-09-09T21:45:33;14.90;99.90
13320;DHT22;59599;47.608;12.190;2022-09-09T21:47:59;14.90;99.90
13320;DHT22;59599;47.608;12.190;2022-09-09T21:52:51;15.00;99.90
